Time;durP1;ratioP1;P1;durP2;ratioP2;P2;SDS_P1;SDS_P2;PMS_P1;PMS_P2;Temp;Humidity;BMP_temperature;BMP_pressure;BME280_temperature;BME280_humidity;BME280_pressure;Samples;Min_cycle;Max_cycle;Signal;HPM_P1;HPM_P2
2022/07/26 00:01:17;;;;;;;6.25;1.20;;;;;;;20.40;60.64;100809.78;5042975;28;20029;-72
2022/07/26 00:03:43;;;;;;;3.58;0.90;;;;;;;20.36;61.14;100801.19;5043058;28;20492;-71
2022/07/26 00:06:09;;;;;;;4.90;1.00;;;;;;;20.27;62.67;100814.59;5059647;28;20100;-72
2022/07/26 00:08:34;;;;;;;8.65;1.63;;;;;;;20.30;62.07;100809.06;5076522;28;20039;-71
2022/07/26 00:11:00;;;;;;;7.30;1.00;;;;;;;20.31;62.21;100807.91;5077742;28;20032;-71
2022/07/26 00:13:25;;;;;;;6.65;1.30;;;;;;;20.26;62.65;100812.97;5059806;28;20080;-72
2022/07/26 00:15:51;;;;;;;7.57;1.45;;;;;;;20.29;62.42;100807.44;5056020;28;20405;-72
2022/07/26 00:18:16;;;;;;;6.55;1.00;;;;;;;20.30;61.83;100817.53;5070605;28;20029;-72
2022/07/26 00:20:42;;;;;;;3.97;1.10;;;;;;;20.29;61.75;100813.06;5057394;28;20040;-72
2022/07/26 00:23:08;;;;;;;4.75;0.90;;;;;;;20.26;61.54;100808.13;5043075;28;20111;-72
2022/07/26 00:25:33;;;;;;;5.00;1.13;;;;;;;20.28;62.35;100804.94;5059431;28;20045;-72
2022/07/26 00:27:59;;;;;;;6.85;1.00;;;;;;;20.26;61.85;100810.97;5056551;28;20055;-72
2022/07/26 00:30:24;;;;;;;4.32;1.10;;;;;;;20.28;61.77;100805.78;5075824;28;20354;-71
2022/07/26 00:32:51;;;;;;;4.78;0.88;;;;;;;20.26;61.85;100796.84;5041292;28;20060;-72
2022/07/26 00:35:17;;;;;;;4.82;0.80;;;;;;;20.17;62.80;100806.59;5059309;28;20039;-72
2022/07/26 00:37:42;;;;;;;4.05;0.77;;;;;;;20.19;62.67;100807.06;5057946;28;20036;-72
2022/07/26 00:40:08;;;;;;;3.53;0.95;;;;;;;20.19;64.09;100813.53;5042393;28;20550;-72
2022/07/26 00:42:34;;;;;;;8.00;1.02;;;;;;;20.21;63.25;100810.38;5075457;28;20123;-72
2022/07/26 00:44:59;;;;;;;5.82;0.95;;;;;;;20.14;63.55;100805.28;5058914;28;20037;-72
2022/07/26 00:47:25;;;;;;;7.72;1.45;;;;;;;20.12;62.85;100807.66;5058621;28;20032;-72
2022/07/26 00:49:50;;;;;;;8.07;1.10;;;;;;;20.08;63.45;100807.53;5058913;28;20489;-72
2022/07/26 00:52:16;;;;;;;7.07;1.27;;;;;;;20.05;64.61;100811.03;5058749;28;20040;-72
2022/07/26 00:54:45;;;;;;;4.07;0.80;;;;;;;20.00;64.92;100807.63;5059112;28;20048;-72
2022/07/26 00:57:12;;;;;;;8.48;1.15;;;;;;;20.00;65.07;100799.19;5075480;28;20035;-72
2022/07/26 00:59:37;;;;;;;7.97;1.10;;;;;;;20.00;64.35;100805.66;5058415;28;20523;-72
2022/07/26 01:02:03;;;;;;;3.40;0.90;;;;;;;20.01;63.90;100795.22;5039588;28;20029;-72
2022/07/26 01:04:29;;;;;;;3.17;0.88;;;;;;;20.01;63.96;100798.03;5029737;28;20055;-72
2022/07/26 01:06:54;;;;;;;5.82;0.93;;;;;;;20.02;64.07;100796.84;5076290;28;20037;-72
2022/07/26 01:09:20;;;;;;;3.40;0.88;;;;;;;20.02;63.81;100797.66;5075189;28;20036;-72
2022/07/26 01:11:45;;;;;;;4.55;1.00;;;;;;;20.04;62.60;100797.31;5042036;28;20017;-71
2022/07/26 01:14:11;;;;;;;5.13;0.95;;;;;;;19.96;63.10;100804.72;5058344;28;20083;-72
2022/07/26 01:16:36;;;;;;;5.22;1.10;;;;;;;19.99;62.93;100792.72;5057646;28;20047;-72
2022/07/26 01:19:02;;;;;;;5.18;1.10;;;;;;;19.96;62.69;100801.88;5041583;28;20036;-72
2022/07/26 01:21:31;;;;;;;10.48;1.15;;;;;;;19.96;62.50;100798.25;5075961;28;20414;-72
2022/07/26 01:23:57;;;;;;;5.43;0.98;;;;;;;19.96;62.52;100799.06;5091590;28;20082;-72
2022/07/26 01:26:22;;;;;;;5.25;0.90;;;;;;;19.92;63.01;100791.66;5074805;28;20040;-72
2022/07/26 01:28:50;;;;;;;5.43;1.00;;;;;;;19.92;62.42;100800.09;5058466;28;20033;-72
2022/07/26 01:31:16;;;;;;;4.68;0.90;;;;;;;19.90;62.38;100794.03;5073450;28;20060;-72
2022/07/26 01:33:42;;;;;;;4.03;1.10;;;;;;;19.81;62.62;100796.94;5056303;28;20025;-72
2022/07/26 01:36:07;;;;;;;6.25;1.10;;;;;;;19.83;62.77;100794.59;5074812;28;20104;-72
2022/07/26 01:38:33;;;;;;;7.13;1.10;;;;;;;19.76;63.46;100800.81;5058281;28;20024;-72
2022/07/26 01:40:59;;;;;;;5.72;0.98;;;;;;;19.73;63.53;100798.69;5074746;28;20024;-72
2022/07/26 01:43:24;;;;;;;5.20;0.90;;;;;;;19.71;63.71;100792.56;5074488;28;20071;-72
2022/07/26 01:45:50;;;;;;;4.65;1.05;;;;;;;19.74;64.14;100797.50;5074746;28;20029;-72
2022/07/26 01:48:15;;;;;;;3.67;1.08;;;;;;;19.73;64.18;100793.06;5075745;28;20028;-72
2022/07/26 01:50:41;;;;;;;5.03;0.95;;;;;;;19.66;63.44;100789.97;5075842;28;20028;-72
2022/07/26 01:53:06;;;;;;;4.90;1.08;;;;;;;19.63;64.56;100785.00;5074764;28;20056;-72
2022/07/26 01:55:32;;;;;;;6.10;1.00;;;;;;;19.62;64.90;100783.38;5074411;28;20024;-72
2022/07/26 01:57:57;;;;;;;2.65;0.88;;;;;;;19.59;64.30;100789.72;5075482;28;20106;-72
2022/07/26 02:00:22;;;;;;;6.53;1.38;;;;;;;19.62;65.02;100783.38;5070668;28;20028;-72
2022/07/26 02:03:03;;;;;;;4.28;0.90;;;;;;;19.62;63.83;100795.47;5075689;28;20107;-72
2022/07/26 02:05:29;;;;;;;3.25;0.80;;;;;;;19.64;64.14;100789.50;5057732;28;20033;-72
2022/07/26 02:07:54;;;;;;;4.57;0.85;;;;;;;19.61;63.68;100798.63;5075767;28;20396;-71
2022/07/26 02:10:20;;;;;;;4.00;0.85;;;;;;;19.61;63.54;100779.75;5075565;28;20079;-72
2022/07/26 02:12:45;;;;;;;4.00;0.90;;;;;;;19.62;64.12;100787.00;5054890;28;20033;-72
2022/07/26 02:15:12;;;;;;;4.80;1.00;;;;;;;19.57;64.53;100795.69;5039706;28;20043;-72
2022/07/26 02:17:37;;;;;;;5.68;1.20;;;;;;;19.57;65.01;100786.41;5057860;28;20078;-72
2022/07/26 02:20:03;;;;;;;5.07;0.95;;;;;;;19.57;65.12;100792.88;5057191;28;20032;-72
2022/07/26 02:22:29;;;;;;;7.03;1.10;;;;;;;19.54;64.31;100789.94;5074463;28;20090;-72
2022/07/26 02:24:54;;;;;;;4.07;0.90;;;;;;;19.55;64.29;100794.38;5057646;28;20021;-72
2022/07/26 02:27:20;;;;;;;5.22;1.00;;;;;;;19.53;64.60;100791.06;5074887;28;20082;-72
2022/07/26 02:29:45;;;;;;;3.95;0.80;;;;;;;19.53;64.29;100786.28;5079412;28;20032;-72
2022/07/26 02:32:11;;;;;;;4.82;0.90;;;;;;;19.52;64.64;100776.19;5078116;28;20382;-72
2022/07/26 02:34:36;;;;;;;3.97;0.93;;;;;;;19.50;64.35;100774.88;5078104;28;20024;-72
2022/07/26 02:37:02;;;;;;;3.97;0.80;;;;;;;19.48;64.30;100786.50;5077884;28;20028;-72
2022/07/26 02:39:27;;;;;;;3.05;0.82;;;;;;;19.46;64.80;100793.66;5044585;28;20071;-72
2022/07/26 02:41:57;;;;;;;5.05;1.08;;;;;;;19.44;64.71;100788.34;5044507;28;20033;-72
2022/07/26 02:44:23;;;;;;;4.25;1.00;;;;;;;19.45;64.95;100792.84;5060921;28;20028;-72
2022/07/26 02:46:49;;;;;;;3.38;1.00;;;;;;;19.43;64.75;100787.53;5061639;28;20424;-72
2022/07/26 02:49:14;;;;;;;3.97;1.00;;;;;;;19.45;64.89;100783.56;5111661;28;20024;-72
2022/07/26 02:51:40;;;;;;;4.45;0.90;;;;;;;19.41;65.11;100784.25;5061413;28;20090;-72
2022/07/26 02:54:05;;;;;;;3.58;1.08;;;;;;;19.41;65.27;100784.25;5060799;28;20079;-72
2022/07/26 02:56:31;;;;;;;5.50;1.20;;;;;;;19.37;65.58;100788.94;5077882;28;20067;-72
2022/07/26 02:58:56;;;;;;;5.90;0.85;;;;;;;19.39;65.09;100792.22;5060664;28;20049;-72
2022/07/26 03:01:22;;;;;;;4.53;0.90;;;;;;;19.38;65.09;100789.75;5060574;28;20051;-72
2022/07/26 03:03:47;;;;;;;4.57;1.10;;;;;;;19.39;65.05;100788.59;5061109;28;20128;-72
2022/07/26 03:06:13;;;;;;;3.47;0.82;;;;;;;19.39;64.89;100792.22;5074074;28;20029;-72
2022/07/26 03:08:38;;;;;;;4.93;1.00;;;;;;;19.36;65.01;100783.63;5090201;28;20059;-72
2022/07/26 03:11:05;;;;;;;4.22;0.82;;;;;;;19.38;65.03;100779.31;5060616;28;20021;-72
2022/07/26 03:13:31;;;;;;;4.22;1.00;;;;;;;19.39;65.49;100774.53;5026939;28;20025;-72
2022/07/26 03:15:56;;;;;;;4.05;1.05;;;;;;;19.40;65.00;100762.88;5077127;28;20082;-72
2022/07/26 03:18:22;;;;;;;2.92;0.90;;;;;;;19.36;65.16;100776.03;5078470;28;20043;-72
2022/07/26 03:20:48;;;;;;;4.95;0.90;;;;;;;19.34;64.58;100781.19;5077284;28;20102;-72
2022/07/26 03:23:14;;;;;;;6.60;0.90;;;;;;;19.34;65.20;100783.19;5078383;28;20028;-72
2022/07/26 03:25:39;;;;;;;6.07;1.17;;;;;;;19.34;64.54;100789.63;5077307;28;20086;-72
2022/07/26 03:28:05;;;;;;;5.00;0.90;;;;;;;19.33;64.37;100787.97;5109645;27;20362;-72
2022/07/26 03:30:30;;;;;;;3.53;1.00;;;;;;;19.30;64.67;100793.47;5060251;28;20115;-72
2022/07/26 03:32:56;;;;;;;5.35;1.15;;;;;;;19.27;64.87;100794.16;5076140;28;20393;-72
2022/07/26 03:35:21;;;;;;;3.28;0.98;;;;;;;19.24;65.25;100795.69;5076567;28;20040;-72
2022/07/26 03:37:47;;;;;;;3.47;1.10;;;;;;;19.26;65.27;100792.53;5077123;28;20066;-72
2022/07/26 03:40:16;;;;;;;2.85;0.88;;;;;;;19.24;65.40;100789.22;5059366;28;20126;-72
2022/07/26 03:42:41;;;;;;;6.35;1.50;;;;;;;19.27;65.43;100789.34;5040648;28;20045;-72
2022/07/26 03:45:07;;;;;;;5.72;1.00;;;;;;;19.25;65.39;100797.34;5056290;28;20029;-72
2022/07/26 03:47:33;;;;;;;3.28;1.00;;;;;;;19.24;65.25;100792.88;5057286;28;20029;-72
2022/07/26 03:49:58;;;;;;;4.05;1.02;;;;;;;19.20;66.07;100794.75;5057797;28;20594;-72
2022/07/26 03:52:24;;;;;;;4.93;1.00;;;;;;;19.22;65.92;100800.00;5059557;28;20066;-72
2022/07/26 03:54:49;;;;;;;4.55;0.93;;;;;;;19.18;65.80;100791.44;5060128;28;20032;-72
2022/07/26 03:57:14;;;;;;;5.53;0.90;;;;;;;19.20;65.65;100795.56;5043243;28;20017;-72
2022/07/26 03:59:40;;;;;;;5.88;1.13;;;;;;;19.11;66.93;100793.97;5076206;28;20052;-72
2022/07/26 04:02:06;;;;;;;6.45;1.20;;;;;;;19.05;67.91;100799.00;5057926;28;20132;-72
2022/07/26 04:04:31;;;;;;;5.93;0.90;;;;;;;19.06;67.88;100799.84;5043359;28;20040;-72
2022/07/26 04:06:57;;;;;;;3.88;1.02;;;;;;;19.02;68.71;100804.50;5043150;28;20393;-72
2022/07/26 04:09:22;;;;;;;3.20;0.98;;;;;;;19.00;67.97;100801.19;5058734;28;20025;-72
2022/07/26 04:11:48;;;;;;;8.38;1.30;;;;;;;18.98;68.04;100805.19;5059990;28;20082;-72
2022/07/26 04:14:13;;;;;;;6.85;1.35;;;;;;;18.97;68.09;100803.56;5059456;28;20032;-72
2022/07/26 04:16:39;;;;;;;4.35;0.95;;;;;;;18.98;67.58;100802.38;5059633;28;20028;-72
2022/07/26 04:19:05;;;;;;;4.05;1.00;;;;;;;18.89;68.51;100801.63;5076020;28;20036;-72
2022/07/26 04:21:30;;;;;;;4.68;0.90;;;;;;;18.89;68.19;100810.06;5057953;28;20021;-72
2022/07/26 04:23:56;;;;;;;4.82;0.90;;;;;;;18.90;67.60;100802.44;5059588;28;20033;-72
2022/07/26 04:26:21;;;;;;;5.95;1.00;;;;;;;18.92;67.62;100806.56;5075123;28;20079;-72
2022/07/26 04:28:47;;;;;;;3.85;1.00;;;;;;;18.92;67.39;100805.75;5057543;28;20035;-71
2022/07/26 04:31:12;;;;;;;4.53;1.10;;;;;;;18.89;67.56;100803.63;5075451;28;20029;-72
2022/07/26 04:33:38;;;;;;;5.38;1.02;;;;;;;18.92;67.37;100809.38;5059208;28;20024;-71
2022/07/26 04:36:03;;;;;;;2.45;0.90;;;;;;;18.94;66.71;100814.66;5059215;28;20025;-71
2022/07/26 04:38:29;;;;;;;5.00;1.33;;;;;;;18.88;67.51;100819.66;5059644;28;20028;-72
2022/07/26 04:40:56;;;;;;;4.05;1.10;;;;;;;18.88;67.33;100813.22;5059028;28;20025;-72
2022/07/26 04:43:22;;;;;;;2.83;0.80;;;;;;;18.86;67.35;100813.59;5076861;28;20174;-72
2022/07/26 04:45:47;;;;;;;4.05;1.10;;;;;;;18.86;67.62;100815.53;5076750;28;20058;-71
2022/07/26 04:48:15;;;;;;;5.75;1.20;;;;;;;18.84;67.63;100804.66;5075566;28;20036;-72
2022/07/26 04:50:41;;;;;;;6.63;1.38;;;;;;;18.78;69.18;100816.44;5074590;28;20465;-72
2022/07/26 04:53:07;;;;;;;4.30;1.10;;;;;;;18.81;68.29;100816.59;5058757;28;20086;-72
2022/07/26 04:55:33;;;;;;;7.03;1.40;;;;;;;18.78;68.45;100822.91;5042487;28;20032;-72
2022/07/26 04:57:58;;;;;;;3.75;0.93;;;;;;;18.83;68.89;100822.69;5041852;28;20044;-72
2022/07/26 05:00:24;;;;;;;3.60;0.93;;;;;;;18.79;68.20;100820.91;5055006;28;20035;-72
2022/07/26 05:02:52;;;;;;;4.78;1.08;;;;;;;18.77;69.77;100815.63;5058760;28;20397;-72
2022/07/26 05:05:18;;;;;;;5.40;1.25;;;;;;;18.73;70.10;100817.44;5058670;28;20044;-72
2022/07/26 05:07:48;;;;;;;5.07;1.05;;;;;;;18.73;69.25;100823.06;5058618;28;20389;-72
2022/07/26 05:10:14;;;;;;;6.90;1.42;;;;;;;18.67;71.58;100833.69;5057036;28;20735;-72
2022/07/26 05:12:40;;;;;;;6.65;1.42;;;;;;;18.67;70.60;100833.69;5025426;28;20024;-72
2022/07/26 05:15:07;;;;;;;3.90;1.10;;;;;;;18.64;72.12;100833.56;5058340;28;20033;-72
2022/07/26 05:17:32;;;;;;;3.75;1.17;;;;;;;18.66;70.39;100832.03;5038702;28;20032;-72
2022/07/26 05:19:58;;;;;;;5.85;1.40;;;;;;;18.69;70.11;100836.16;5039460;28;20031;-72
2022/07/26 05:22:23;;;;;;;4.78;1.30;;;;;;;18.68;71.04;100835.34;5025425;28;20028;-72
2022/07/26 05:24:49;;;;;;;3.58;1.08;;;;;;;18.71;69.87;100833.84;5108767;28;20469;-72
2022/07/26 05:27:14;;;;;;;5.20;1.20;;;;;;;18.74;69.56;100841.63;5072932;28;20082;-72
2022/07/26 05:29:40;;;;;;;5.57;1.50;;;;;;;18.74;68.89;100834.00;5058152;28;20041;-72
2022/07/26 05:32:05;;;;;;;4.50;1.10;;;;;;;18.74;70.02;100838.81;5056458;28;20028;-64
2022/07/26 05:34:31;;;;;;;5.53;1.05;;;;;;;18.76;69.88;100842.13;5074595;28;20596;-65
2022/07/26 05:36:56;;;;;;;3.30;1.10;;;;;;;18.78;69.31;100838.94;5075930;28;20538;-64
2022/07/26 05:39:22;;;;;;;3.45;1.02;;;;;;;18.83;69.09;100842.38;5058079;28;20043;-64
2022/07/26 05:41:47;;;;;;;3.03;1.00;;;;;;;18.85;68.91;100840.06;5091431;28;20041;-64
2022/07/26 05:44:13;;;;;;;5.72;1.40;;;;;;;18.86;68.44;100841.72;5075709;28;20036;-64
2022/07/26 05:46:38;;;;;;;3.55;1.40;;;;;;;18.85;69.86;100840.06;5057115;28;20033;-64
2022/07/26 05:49:04;;;;;;;3.15;1.02;;;;;;;18.87;68.37;100832.09;5075720;28;20090;-64
2022/07/26 05:51:30;;;;;;;5.18;1.27;;;;;;;18.89;68.31;100840.22;5057835;28;20028;-64
2022/07/26 05:53:56;;;;;;;1.58;0.80;;;;;;;18.93;68.48;100841.97;5056249;28;20029;-64
2022/07/26 05:56:21;;;;;;;3.47;0.93;;;;;;;18.95;68.19;100836.03;5057274;28;20043;-64
2022/07/26 05:58:47;;;;;;;2.72;1.02;;;;;;;18.97;68.06;100837.34;5057627;28;20048;-64
2022/07/26 06:01:12;;;;;;;5.85;1.00;;;;;;;19.01;67.83;100853.53;5074092;28;20083;-65
2022/07/26 06:03:38;;;;;;;3.97;1.00;;;;;;;19.03;67.88;100856.78;5078244;28;20028;-65
2022/07/26 06:06:04;;;;;;;4.63;0.93;;;;;;;19.09;67.55;100844.19;5061573;28;20040;-64
2022/07/26 06:08:29;;;;;;;3.47;0.90;;;;;;;19.09;67.61;100852.63;5045264;28;20036;-65
2022/07/26 06:10:55;;;;;;;1.25;0.70;;;;;;;19.09;67.54;100850.63;5062079;28;20029;-65
2022/07/26 06:13:20;;;;;;;2.33;0.88;;;;;;;19.15;67.89;100854.88;5078399;28;20025;-65
2022/07/26 06:15:46;;;;;;;4.57;0.90;;;;;;;19.15;67.29;100851.25;5078004;28;20036;-65
2022/07/26 06:18:11;;;;;;;2.40;0.70;;;;;;;19.16;68.19;100852.88;5061742;28;20032;-65
2022/07/26 06:20:41;;;;;;;2.08;0.70;;;;;;;19.17;68.58;100851.75;5078398;28;20036;-65
2022/07/26 06:23:06;;;;;;;3.58;0.98;;;;;;;19.21;67.66;100852.69;5078150;28;20105;-65
2022/07/26 06:25:32;;;;;;;2.60;0.90;;;;;;;19.25;67.80;100856.47;5061450;28;20033;-65
2022/07/26 06:27:58;;;;;;;3.83;0.85;;;;;;;19.27;67.61;100865.38;5060363;28;20114;-69
2022/07/26 06:30:23;;;;;;;3.50;0.90;;;;;;;19.31;67.97;100862.72;5042623;28;20648;-65
2022/07/26 06:32:48;;;;;;;2.95;1.13;;;;;;;19.36;67.99;100859.66;5061309;28;20032;-65
2022/07/26 06:35:14;;;;;;;6.00;1.17;;;;;;;19.40;68.79;100858.66;5059932;28;20033;-65
2022/07/26 06:37:40;;;;;;;3.20;0.70;;;;;;;19.44;67.94;100861.59;5044861;28;20477;-65
2022/07/26 06:40:07;;;;;;;2.92;0.80;;;;;;;19.49;68.85;100858.56;5061505;28;20028;-65
2022/07/26 06:42:32;;;;;;;2.55;0.63;;;;;;;19.53;69.66;100864.31;5061397;28;20058;-65
2022/07/26 06:44:58;;;;;;;4.05;1.23;;;;;;;19.59;68.50;100866.59;5090786;28;20473;-65
2022/07/26 06:47:24;;;;;;;7.90;1.45;;;;;;;19.65;69.87;100870.00;5079130;28;20422;-65
2022/07/26 06:49:49;;;;;;;6.57;1.20;;;;;;;19.71;69.05;100871.47;5077707;28;20029;-65
2022/07/26 06:52:15;;;;;;;4.00;1.00;;;;;;;19.79;69.12;100873.38;5077801;28;20036;-64
2022/07/26 06:54:40;;;;;;;3.53;1.02;;;;;;;19.88;67.84;100869.63;5073455;28;20028;-65
2022/07/26 06:57:06;;;;;;;7.88;1.20;;;;;;;19.97;68.16;100879.63;5061093;28;20044;-65
2022/07/26 06:59:32;;;;;;;4.07;1.05;;;;;;;20.04;67.83;100871.44;5040501;28;20056;-64
2022/07/26 07:01:57;;;;;;;6.40;0.90;;;;;;;20.11;68.30;100878.50;5077809;28;20052;-65
2022/07/26 07:04:23;;;;;;;4.40;0.93;;;;;;;20.15;68.09;100883.09;5077416;28;20507;-65
2022/07/26 07:06:48;;;;;;;5.10;1.10;;;;;;;20.24;67.57;100892.25;5077340;28;20112;-65
2022/07/26 07:09:13;;;;;;;3.85;0.82;;;;;;;20.30;66.93;100885.22;5060692;28;20032;-65
2022/07/26 07:11:39;;;;;;;4.35;0.95;;;;;;;20.36;67.00;100879.34;5076406;28;20086;-65
2022/07/26 07:14:04;;;;;;;6.18;1.00;;;;;;;20.42;66.90;100883.56;5070285;28;20032;-65
2022/07/26 07:16:30;;;;;;;2.85;0.80;;;;;;;20.50;66.50;100886.31;5060270;28;20028;-65
2022/07/26 07:18:55;;;;;;;3.78;0.73;;;;;;;20.57;66.08;100897.03;5093986;28;20031;-64
2022/07/26 07:21:21;;;;;;;3.75;1.00;;;;;;;20.62;66.58;100891.16;5103897;28;20063;-65
2022/07/26 07:23:46;;;;;;;4.70;1.00;;;;;;;20.71;65.88;100891.84;5076617;28;20052;-65
2022/07/26 07:26:12;;;;;;;3.83;0.70;;;;;;;20.77;65.71;100885.97;5076935;28;20031;-65
2022/07/26 07:28:38;;;;;;;2.25;0.77;;;;;;;20.85;65.03;100897.13;5054277;28;20029;-65
2022/07/26 07:31:04;;;;;;;2.90;0.70;;;;;;;20.92;65.19;100890.88;5043733;28;20097;-65
2022/07/26 07:33:30;;;;;;;4.05;1.10;;;;;;;20.97;64.87;100891.44;5038673;28;20028;-65
2022/07/26 07:35:55;;;;;;;5.13;0.98;;;;;;;21.07;64.47;100890.16;5043894;28;20074;-65
2022/07/26 07:38:21;;;;;;;6.60;1.10;;;;;;;21.15;64.12;100894.03;5076816;28;20555;-64
2022/07/26 07:40:46;;;;;;;3.65;0.60;;;;;;;21.22;63.74;100890.56;5060041;28;20036;-65
2022/07/26 07:43:12;;;;;;;3.13;0.68;;;;;;;21.27;63.82;100901.63;5058305;28;20433;-65
2022/07/26 07:45:37;;;;;;;6.55;1.40;;;;;;;21.34;63.31;100893.34;5076758;28;20033;-65
2022/07/26 07:48:03;;;;;;;4.15;0.60;;;;;;;21.45;62.98;100903.00;5078010;28;20032;-65
2022/07/26 07:50:28;;;;;;;4.40;0.60;;;;;;;21.53;62.54;100898.38;5059882;28;20024;-65
2022/07/26 07:52:54;;;;;;;3.65;0.90;;;;;;;21.62;61.99;100896.25;5076637;28;20021;-64
2022/07/26 07:55:20;;;;;;;4.18;0.60;;;;;;;21.71;61.56;100890.44;5073180;28;20509;-65
2022/07/26 07:57:45;;;;;;;3.78;0.57;;;;;;;21.80;61.43;100896.75;5084445;28;20028;-65
2022/07/26 08:00:14;;;;;;;5.32;0.82;;;;;;;21.90;61.30;100901.03;5076406;28;20572;-65
2022/07/26 08:02:39;;;;;;;5.85;0.85;;;;;;;21.99;61.02;100902.53;5059861;28;20031;-65
2022/07/26 08:05:06;;;;;;;5.50;0.93;;;;;;;22.09;60.54;100904.00;5059747;28;20104;-66
2022/07/26 08:07:32;;;;;;;4.68;1.10;;;;;;;22.21;59.56;100911.63;5059999;28;20507;-65
2022/07/26 08:09:57;;;;;;;2.70;0.80;;;;;;;22.29;58.31;100910.63;5076255;28;20032;-65
2022/07/26 08:12:23;;;;;;;4.20;0.90;;;;;;;22.39;58.07;100909.25;5076075;28;20035;-65
2022/07/26 08:14:48;;;;;;;4.60;0.80;;;;;;;22.53;57.54;100907.59;5059730;28;20477;-65
2022/07/26 08:17:14;;;;;;;4.30;0.75;;;;;;;22.61;56.88;100905.78;5075891;28;20064;-65
2022/07/26 08:19:39;;;;;;;3.63;0.70;;;;;;;22.71;56.17;100910.06;5059507;28;20027;-65
2022/07/26 08:22:07;;;;;;;2.60;0.57;;;;;;;22.81;55.67;100900.19;5059353;28;20481;-65
2022/07/26 08:24:33;;;;;;;1.75;0.60;;;;;;;22.92;55.28;100895.59;5092991;28;20131;-64
2022/07/26 08:26:58;;;;;;;4.95;0.77;;;;;;;23.06;54.81;100904.44;5059969;28;20039;-64
2022/07/26 08:29:24;;;;;;;3.15;0.80;;;;;;;23.25;54.46;100903.66;5059309;28;20025;-65
2022/07/26 08:31:51;;;;;;;4.00;0.50;;;;;;;23.44;53.87;100900.03;5075920;28;20481;-65
2022/07/26 08:34:17;;;;;;;3.22;0.70;;;;;;;23.62;52.94;100901.22;5053454;28;20029;-65
2022/07/26 08:36:42;;;;;;;2.38;0.40;;;;;;;23.77;51.60;100902.38;5036272;28;20039;-65
2022/07/26 08:39:08;;;;;;;1.63;0.63;;;;;;;23.92;50.46;100896.97;5075914;28;20040;-65
2022/07/26 08:41:34;;;;;;;2.70;0.50;;;;;;;24.01;50.16;100898.34;5058895;28;20024;-65
2022/07/26 08:44:06;;;;;;;2.45;0.40;;;;;;;24.14;48.80;100899.00;5056348;28;20028;-65
2022/07/26 08:46:34;;;;;;;4.75;0.60;;;;;;;24.24;47.92;100892.72;5059307;28;20028;-65
2022/07/26 08:48:59;;;;;;;2.85;0.60;;;;;;;24.35;47.87;100898.59;5059151;28;20025;-65
2022/07/26 08:51:25;;;;;;;2.92;0.50;;;;;;;24.44;47.27;100896.34;5058712;28;20112;-65
2022/07/26 08:53:55;;;;;;;2.58;0.57;;;;;;;24.49;46.96;100898.84;5059367;28;20029;-65
2022/07/26 08:56:20;;;;;;;2.25;0.57;;;;;;;24.59;46.43;100905.91;5059229;28;20033;-64
2022/07/26 08:58:46;;;;;;;2.40;0.43;;;;;;;24.62;45.90;100896.63;5074878;28;20048;-65
2022/07/26 09:01:12;;;;;;;1.85;0.50;;;;;;;24.78;45.41;100898.50;5075194;28;20349;-64
2022/07/26 09:03:37;;;;;;;5.03;0.70;;;;;;;24.86;45.09;100900.25;5075694;28;20546;-65
2022/07/26 09:06:24;;;;;;;4.28;0.93;;;;;;;24.94;44.96;100902.00;5058506;28;20373;-65
2022/07/26 09:08:50;;;;;;;2.38;0.40;;;;;;;24.94;45.62;100899.16;5109169;28;20039;-65
2022/07/26 09:11:27;;;;;;;3.35;0.60;;;;;;;24.95;45.42;100898.75;5058661;28;20040;-64
2022/07/26 09:13:53;;;;;;;3.03;0.60;;;;;;;24.94;44.80;100896.31;5056362;28;20421;-64
2022/07/26 09:16:19;;;;;;;3.65;0.60;;;;;;;25.04;44.59;100892.78;5076461;28;20036;-65
2022/07/26 09:18:45;;;;;;;4.43;0.68;;;;;;;25.07;45.20;100900.53;5058768;28;20109;-65
2022/07/26 09:21:33;;;;;;;1.63;0.40;;;;;;;25.08;45.32;100902.19;5058236;28;20044;-65
2022/07/26 09:23:59;;;;;;;3.90;0.50;;;;;;;25.14;45.20;100906.38;5059013;28;20040;-65
2022/07/26 09:26:25;;;;;;;3.40;0.70;;;;;;;25.06;45.38;100910.28;5073765;28;20400;-65
2022/07/26 09:29:06;;;;;;;2.50;0.52;;;;;;;25.01;45.45;100912.63;5058361;28;20028;-65
2022/07/26 09:31:32;;;;;;;2.17;0.57;;;;;;;24.92;45.44;100910.06;5058143;28;20044;-65
2022/07/26 09:33:58;;;;;;;5.13;0.50;;;;;;;24.86;45.85;100911.59;5058351;28;20481;-65
2022/07/26 09:36:24;;;;;;;3.08;0.65;;;;;;;24.81;45.68;100921.25;5038131;28;20025;-64
2022/07/26 09:38:52;;;;;;;3.75;0.68;;;;;;;24.77;46.18;100922.41;5057949;28;20036;-65
2022/07/26 09:41:23;;;;;;;6.70;0.80;;;;;;;24.64;46.40;100916.94;5041717;28;20479;-65
2022/07/26 09:43:49;;;;;;;2.50;0.60;;;;;;;24.47;46.17;100915.44;5074779;28;20039;-65
2022/07/26 09:46:15;;;;;;;3.60;0.60;;;;;;;24.42;46.22;100910.03;5057819;28;20021;-64
2022/07/26 09:48:41;;;;;;;2.78;0.40;;;;;;;24.33;46.76;100917.19;5058253;28;20032;-65
2022/07/26 09:51:07;;;;;;;6.03;0.60;;;;;;;24.14;46.96;100916.03;5041602;28;20021;-65
2022/07/26 09:53:45;;;;;;;4.68;0.90;;;;;;;24.12;47.42;100918.41;5058015;28;20089;-65
2022/07/26 09:56:10;;;;;;;3.60;0.90;;;;;;;24.01;47.63;100920.22;5073894;28;20039;-65
2022/07/26 09:58:36;;;;;;;5.07;0.80;;;;;;;23.94;47.69;100915.25;5074268;28;20049;-65
2022/07/26 10:01:03;;;;;;;3.10;0.65;;;;;;;23.99;46.86;100916.97;5022786;28;20059;-64
2022/07/26 10:03:30;;;;;;;2.38;0.65;;;;;;;23.82;46.28;100918.22;5055941;28;20041;-65
2022/07/26 10:05:57;;;;;;;4.93;0.57;;;;;;;23.66;45.15;100920.31;5057786;28;20408;-64
2022/07/26 10:08:22;;;;;;;3.75;0.70;;;;;;;23.63;45.09;100924.72;5040960;28;20040;-64
2022/07/26 10:10:54;;;;;;;1.95;0.70;;;;;;;23.54;45.29;100927.78;5074484;28;20384;-65
2022/07/26 10:13:20;;;;;;;3.20;0.70;;;;;;;23.41;45.24;100938.44;5055618;28;20033;-64
2022/07/26 10:15:47;;;;;;;2.90;0.82;;;;;;;23.46;44.81;100939.31;5057466;28;20040;-65
2022/07/26 10:18:34;;;;;;;3.60;0.65;;;;;;;23.36;45.87;100933.06;5057723;28;20053;-65
2022/07/26 10:21:00;;;;;;;2.20;0.60;;;;;;;23.39;46.10;100935.16;5075470;28;20032;-64
2022/07/26 10:23:31;;;;;;;3.22;0.50;;;;;;;23.32;46.18;100943.50;5074059;28;20033;-65
2022/07/26 10:25:57;;;;;;;1.33;0.40;;;;;;;23.30;46.45;100939.41;5071254;28;20141;-65
2022/07/26 10:28:25;;;;;;;3.85;0.50;;;;;;;23.28;46.78;100936.91;5057309;28;20037;-65
2022/07/26 10:30:51;;;;;;;4.43;0.90;;;;;;;23.30;46.69;100940.22;5055587;28;20029;-64
2022/07/26 10:33:17;;;;;;;4.05;0.70;;;;;;;23.20;47.00;100929.44;5041025;28;20075;-64
2022/07/26 10:35:42;;;;;;;3.15;0.57;;;;;;;23.18;47.15;100929.84;5074347;28;20032;-65
2022/07/26 10:38:08;;;;;;;4.80;0.75;;;;;;;23.15;47.80;100936.25;5070796;28;20524;-64
2022/07/26 10:40:34;;;;;;;3.65;0.50;;;;;;;23.30;47.57;100917.53;5073450;28;20024;-65
2022/07/26 10:43:12;;;;;;;3.38;0.47;;;;;;;23.54;47.52;100916.44;5041001;28;20032;-64
2022/07/26 10:45:38;;;;;;;5.28;0.50;;;;;;;23.77;46.80;100924.22;5068675;28;20032;-65
2022/07/26 10:48:11;;;;;;;4.88;0.70;;;;;;;24.11;47.24;100910.28;5058101;28;20489;-65
2022/07/26 10:50:38;;;;;;;2.60;0.40;;;;;;;24.45;46.30;100917.00;5061274;28;20021;-64
2022/07/26 10:53:03;;;;;;;4.18;0.80;;;;;;;24.74;45.21;100921.16;5045724;28;20031;-65
2022/07/26 10:55:29;;;;;;;4.32;0.60;;;;;;;25.01;44.51;100924.00;5044151;28;20036;-65
2022/07/26 10:57:54;;;;;;;4.20;0.55;;;;;;;25.12;43.54;100917.25;5042666;28;20033;-65
2022/07/26 11:00:24;;;;;;;2.05;0.38;;;;;;;25.32;43.15;100915.13;5060611;28;20408;-65
2022/07/26 11:02:54;;;;;;;3.40;0.65;;;;;;;25.50;42.79;100912.56;5088844;28;20037;-65
2022/07/26 11:05:21;;;;;;;2.25;0.52;;;;;;;25.64;42.36;100915.56;5058614;28;20044;-65
2022/07/26 11:07:50;;;;;;;1.63;0.40;;;;;;;25.79;42.31;100912.91;5053122;28;20033;-65
2022/07/26 11:10:16;;;;;;;3.08;0.70;;;;;;;25.95;42.28;100919.22;5078691;28;20032;-65
2022/07/26 11:12:42;;;;;;;3.78;0.60;;;;;;;26.06;42.04;100919.34;5077363;28;20031;-65
2022/07/26 11:15:17;;;;;;;2.72;0.55;;;;;;;26.05;41.31;100909.97;5075505;28;20056;-65
2022/07/26 11:17:42;;;;;;;2.78;0.50;;;;;;;26.07;40.83;100916.06;5040821;28;20044;-65
2022/07/26 11:20:08;;;;;;;3.78;0.80;;;;;;;26.12;40.13;100916.94;5059710;28;20101;-65